Latest Coastal Weather Observations for Lihou Reef Lighthouse

IDQ60701

Issued at 1:22 am EST Sunday 2 October 2016 (issued every 10 minutes, with the page automatically refreshed every 10 minutes)

About coastal observations | Map of coastal stations | Coastal observations for QLD | Marine services | Other Formats
Station Details ID: 200880 Name: LIHOU REEF LIGHTHOUSE Lat: -17.13 Lon: 152.15 Height: 0.0 m
Data from the previous 72 hours. | See also: Recent months at Lihou Reef Lighthouse
Date/Time
EST
Temp
°C
Wind Pressure Rain since
9am
mm
Weather Cloud Vis
km
Sea
Height
m
Swell
Dir  Spd
kts
Gust
kts
hPa Trend Height
m
Period
s
Dir
02/01:00am 25.2 ESE 11 13 1013.4 - - - - - - - - -
02/12:30am 25.4 SE 11 13 1013.8 - - - - - - - - -
02/12:00am 25.2 SE 11 13 1014.2 - - - - - - - - -
 
Date/Time
EST
Temp
°C
Wind Pressure Rain since
9am
mm
Weather Cloud Vis
km
Sea
Height
m
Swell
Dir  Spd
kts
Gust
kts
hPa Trend Height
m
Period
s
Dir
01/11:30pm 25.1 SE 10 12 1014.5 - - - - - - - - -
01/11:00pm 25.3 SE 9 11 1014.9 - - - - - - - - -
01/10:30pm 25.4 SE 9 11 1015.1 - - - - - - - - -
01/10:00pm 25.6 SE 9 9 1015.5 - - - - - - - - -
01/09:30pm 25.5 SE 8 9 1015.4 - - - - - - - - -
01/09:00pm 25.5 SE 8 9 1015.2 - - - - - - - - -
01/08:30pm 25.5 SE 8 9 1015.0 - - - - - - - - -
01/08:00pm 25.6 SE 7 8 1014.7 - - - - - - - - -
01/07:30pm 25.6 SE 7 7 1014.5 - - - - - - - - -
01/07:00pm 25.5 SE 7 8 1014.3 - - - - - - - - -
01/06:30pm 25.7 SE 6 7 1014.0 - - - - - - - - -
01/06:00pm 25.6 SE 5 6 1013.7 - - - - - - - - -
01/05:30pm 25.9 SE 5 6 1013.4 - - - - - - - - -
01/05:00pm 26.1 ESE 4 4 1013.2 - - - - - - - - -
01/04:30pm 27.1 E 1 3 1013.0 - - - - - - - - -
01/04:00pm 26.7 CALM 0 8 1012.8 - - - - - - - - -
01/03:30pm 26.2 E 1 2 1012.7 - - - - - - - - -
01/03:00pm 26.1 ENE 3 4 1012.6 - - - - - - - - -
01/02:30pm 26.0 ENE 4 5 1012.8 - - - - - - - - -
01/02:00pm 26.0 NE 4 5 1012.9 - - - - - - - - -
01/01:30pm 25.9 NE 7 8 1013.0 - - - - - - - - -
01/01:00pm 25.8 NE 7 8 1013.3 - - - - - - - - -
01/12:30pm 25.9 NE 5 6 1013.9 - - - - - - - - -
01/12:00pm 25.8 NE 6 9 1014.1 - - - - - - - - -
01/11:30am 25.7 ENE 7 8 1014.3 - - - - - - - - -
01/11:00am 25.7 NE 8 10 1014.4 - - - - - - - - -
01/10:30am 25.7 ENE 9 11 1014.8 - - - - - - - - -
01/10:00am 25.9 ENE 9 10 1015.1 - - - - - - - - -
01/09:30am 26.2 ENE 7 8 1015.7 - - - - - - - - -
01/09:00am 26.2 ENE 6 8 1015.7 - - - - - - - - -
01/08:30am 26.0 E 7 9 1015.4 - - - - - - - - -
01/08:00am 26.1 E 8 10 1015.3 - - - - - - - - -
01/07:30am 25.8 ENE 8 10 1014.9 - - - - - - - - -
01/07:00am 25.9 ENE 8 10 1014.5 - - - - - - - - -
01/06:30am 25.8 ENE 8 10 1014.0 - - - - - - - - -
01/06:00am 25.4 ENE 9 10 1013.4 - - - - - - - - -
01/05:30am 25.3 ENE 9 10 1013.0 - - - - - - - - -
01/05:00am 25.4 CALM 0 0 1012.8 - - - - - - - - -
01/04:30am 25.4 CALM 0 7 1012.4 - - - - - - - - -
01/04:00am 25.2 ENE 1 6 1012.0 - - - - - - - - -
01/03:30am 25.2 CALM 0 4 1011.9 - - - - - - - - -
01/03:00am 25.1 E 1 5 1011.5 - - - - - - - - -
01/02:30am 25.3 CALM 0 5 1011.6 - - - - - - - - -
01/02:00am 25.4 CALM 0 0 1011.6 - - - - - - - - -
01/01:30am 25.3 CALM 0 0 1011.7 - - - - - - - - -
01/01:00am 25.4 CALM 0 1 1011.9 - - - - - - - - -
01/12:30am 25.3 ENE 1 6 1012.1 - - - - - - - - -
01/12:00am 25.4 ENE 1 6 1012.3 - - - - - - - - -
 
Date/Time
EST
Temp
°C
Wind Pressure Rain since
9am
mm
Weather Cloud Vis
km
Sea
Height
m
Swell
Dir  Spd
kts
Gust
kts
hPa Trend Height
m
Period
s
Dir
30/11:30pm 25.4 CALM 0 0 1012.6 - - - - - - - - -
30/11:00pm 25.6 CALM 0 3 1012.7 - - - - - - - - -
30/10:30pm 25.5 CALM 0 0 1013.1 - - - - - - - - -
30/10:00pm 25.7 CALM 0 0 1013.1 - - - - - - - - -
30/09:30pm 25.6 CALM 0 0 1013.2 - - - - - - - - -
30/09:00pm 25.6 CALM 0 0 1013.1 - - - - - - - - -
30/08:30pm 25.7 CALM 0 0 1012.7 - - - - - - - - -
30/08:00pm 25.7 CALM 0 0 1012.4 - - - - - - - - -
30/07:30pm 25.7 CALM 0 0 1011.9 - - - - - - - - -
30/07:00pm 25.8 CALM 0 4 1011.6 - - - - - - - - -
30/06:30pm 25.8 N 2 2 1011.3 - - - - - - - - -
30/06:00pm 25.8 N 3 3 1011.2 - - - - - - - - -
30/05:30pm 25.9 N 4 5 1011.0 - - - - - - - - -
30/05:00pm 25.9 N 4 6 1010.6 - - - - - - - - -
30/04:30pm 25.9 N 5 6 1010.2 - - - - - - - - -
30/04:00pm 26.0 N 5 5 1010.2 - - - - - - - - -
30/03:30pm 26.0 N 5 6 1010.2 - - - - - - - - -
30/03:00pm 26.0 N 4 5 1010.1 - - - - - - - - -
30/02:30pm 25.9 NNE 7 8 1009.9 - - - - - - - - -
30/02:00pm 25.7 NNE 10 12 1010.1 - - - - - - - - -
30/01:30pm 25.9 NNE 9 10 1010.4 - - - - - - - - -
30/01:00pm 25.8 NNE 9 11 1010.8 - - - - - - - - -
30/12:30pm 25.8 NNE 9 10 1011.1 - - - - - - - - -
30/12:00pm 25.7 NNE 9 11 1011.5 - - - - - - - - -
30/11:30am 25.9 NNE 7 9 1012.3 - - - - - - - - -
30/11:00am 25.6 NNE 8 11 1012.4 - - - - - - - - -
30/10:30am 25.7 NNE 9 11 1012.4 - - - - - - - - -
30/10:00am 25.6 NNE 10 12 1012.4 - - - - - - - - -
30/09:30am 25.6 NNE 9 10 1012.5 - - - - - - - - -
30/09:00am 25.6 NNE 9 10 1012.5 - - - - - - - - -
30/08:30am 25.4 NE 10 11 1012.4 - - - - - - - - -
30/08:00am 25.3 NE 9 10 1012.4 - - - - - - - - -
30/07:30am 25.4 NE 7 9 1012.4 - - - - - - - - -
30/07:00am 25.4 NE 6 8 1012.3 - - - - - - - - -
30/06:30am 25.2 NE 8 9 1011.7 - - - - - - - - -
30/06:00am 25.1 NE 8 9 1011.3 - - - - - - - - -
30/05:30am 25.1 NNE 9 11 1010.7 - - - - - - - - -
30/05:00am 25.0 NNE 9 11 1010.3 - - - - - - - - -
30/04:30am 25.1 NE 8 9 1010.1 - - - - - - - - -
30/04:00am 24.9 NE 9 11 1009.8 - - - - - - - - -
30/03:30am 25.0 NE 8 10 1009.7 - - - - - - - - -
30/03:00am 24.9 NE 8 10 1009.9 - - - - - - - - -
30/02:30am 25.1 NNE 9 11 1009.9 - - - - - - - - -
30/02:00am 25.0 NE 8 10 1010.3 - - - - - - - - -
30/01:30am 25.1 NNE 10 13 1010.3 - - - - - - - - -
30/01:00am 25.0 NNE 12 14 1010.4 - - - - - - - - -
30/12:30am 25.1 NNE 10 11 1011.1 - - - - - - - - -
30/12:00am 25.0 NE 8 10 1011.4 - - - - - - - - -
 
Date/Time
EST
Temp
°C
Wind Pressure Rain since
9am
mm
Weather Cloud Vis
km
Sea
Height
m
Swell
Dir  Spd
kts
Gust
kts
hPa Trend Height
m
Period
s
Dir
29/11:30pm 25.1 NE 6 8 1012.0 - - - - - - - - -
29/11:00pm 25.2 NE 7 8 1012.3 - - - - - - - - -
29/10:30pm 25.1 NE 6 9 1012.4 - - - - - - - - -
29/10:00pm 25.2 ENE 9 11 1012.1 - - - - - - - - -
29/09:30pm 25.3 ENE 7 9 1012.5 - - - - - - - - -
29/09:00pm 25.2 ENE 7 8 1012.7 - - - - - - - - -
29/08:30pm 25.4 ENE 6 8 1012.4 - - - - - - - - -
29/08:00pm 25.4 ENE 7 9 1011.9 - - - - - - - - -
29/07:30pm 25.3 ENE 7 10 1011.4 - - - - - - - - -
29/07:00pm 25.3 ENE 7 8 1011.0 - - - - - - - - -
29/06:30pm 25.2 ENE 5 7 1010.7 - - - - - - - - -
29/06:00pm 25.3 E 5 7 1010.4 - - - - - - - - -
29/05:30pm 25.2 E 5 7 1010.1 - - - - - - - - -
29/05:00pm 25.4 ENE 6 7 1009.8 - - - - - - - - -
29/04:30pm 25.4 ENE 6 7 1009.6 - - - - - - - - -
29/04:00pm 25.3 E 5 7 1009.5 - - - - - - - - -
29/03:30pm 25.3 E 4 6 1009.4 - - - - - - - - -
29/03:00pm 25.2 ENE 6 7 1009.2 - - - - - - - - -
29/02:30pm 25.3 ENE 5 7 1009.4 - - - - - - - - -
29/02:00pm 25.2 NE 7 8 1009.4 - - - - - - - - -
29/01:30pm 25.2 ENE 7 9 1009.7 - - - - - - - - -
29/01:00pm 25.2 ENE 7 8 1009.9 - - - - - - - - -
29/12:30pm 25.1 E 7 8 1010.4 - - - - - - - - -
29/12:00pm 25.0 E 7 9 1011.1 - - - - - - - - -
29/11:30am 25.1 ENE 6 8 1011.6 - - - - - - - - -
29/11:00am 25.0 E 6 8 1011.8 - - - - - - - - -
29/10:30am 25.1 E 6 8 1012.4 - - - - - - - - -
29/10:00am 25.3 E 6 8 1012.5 - - - - - - - - -
29/09:30am 25.0 E 8 9 1012.6 - - - - - - - - -
29/09:00am 25.0 E 8 12 1012.6 - - - - - - - - -
29/08:30am 25.0 E 8 10 1012.5 - - - - - - - - -
29/08:00am 25.0 ESE 8 9 1012.6 - - - - - - - - -
29/07:30am 25.0 ESE 7 9 1012.4 - - - - - - - - -
29/07:00am 24.9 E 6 8 1012.1 - - - - - - - - -
29/06:30am 24.6 E 6 8 1011.8 - - - - - - - - -
29/06:00am 24.4 E 6 9 1011.5 - - - - - - - - -
29/05:30am 24.2 ESE 6 9 1011.3 - - - - - - - - -
29/05:00am 24.4 E 5 7 1011.4 - - - - - - - - -
29/04:30am 24.3 E 6 7 1011.2 - - - - - - - - -
29/04:00am 24.3 E 6 8 1011.0 - - - - - - - - -
29/03:30am 24.2 ESE 6 8 1011.0 - - - - - - - - -
29/03:00am 24.2 SE 6 7 1011.1 - - - - - - - - -
29/02:30am 24.3 ESE 5 7 1010.9 - - - - - - - - -
29/02:00am 24.3 ESE 7 9 1011.0 - - - - - - - - -
29/01:30am 24.4 ESE 6 9 1011.3 - - - - - - - - -

Other Formats:

Comma delimited format used in spreadsheet applications
http://www.bom.gov.au/fwo/IDQ60701/IDQ60701.94293.axf

JavaScript Object Notation format (JSON) in row-major order
http://www.bom.gov.au/fwo/IDQ60701/IDQ60701.94293.json